This is the latest recevied weather packets stored in our database for station/object K1ABC. If no packets are shown the sender has not sent any weather packets the latest 10 day(s).
| Time | Temp. | Humidity | Pressure | Rain* | Wind** | Luminosity | Snow |
|---|---|---|---|---|---|---|---|
| 1777490137 | 10° C | 78% | 1015.6 hPa | 0 mm | - | - | - |
| 1777489814 | 10.56° C | 78% | 1015.6 hPa | 0 mm | - | - | - |
| 1777489687 | 10.56° C | 78% | 1015.6 hPa | 0 mm | - | - | - |
| 1777489308 | 10.56° C | 78% | 1015.7 hPa | 0 mm | - | - | - |
| 1777489052 | 10.56° C | 77% | 1015.7 hPa | 0 mm | - | - | - |
| 1777488534 | 10.56° C | 77% | 1015.9 hPa | 0 mm | - | - | - |
| 1777488414 | 10.56° C | 77% | 1015.9 hPa | 0 mm | - | - | - |
| 1777488293 | 10.56° C | 77% | 1015.8 hPa | 0 mm | - | - | - |
| 1777487919 | 10.56° C | 77% | 1015.8 hPa | 0 mm | - | - | - |
| 1777486325 | 10.56° C | 77% | 1016 hPa | 0 mm | - | - | - |
| 1777483269 | 10.56° C | 77% | 1016.3 hPa | 0 mm | - | - | - |
| 1777481093 | 11.67° C | 73% | 1016.3 hPa | 0 mm | - | - | - |
| 1777480965 | 11.67° C | 73% | 1016.3 hPa | 0 mm | - | - | - |
| 1777480068 | 12.22° C | 73% | 1016 hPa | 0 mm | - | - | - |
| 1777478972 | 12.22° C | 74% | 1016.1 hPa | 0 mm | - | - | - |
| 1777475268 | 10° C | 83% | 1017.4 hPa | 0 mm | - | - | - |
| 1777472897 | 8.33° C | 89% | 1018.4 hPa | 0 mm | - | - | - |
| 1777472518 | 8.33° C | 89% | 1018.3 hPa | 0 mm | - | - | - |
| 1777472268 | 8.33° C | 90% | 1018.3 hPa | 0 mm | - | - | - |
| 1777471421 | 8.33° C | 90% | 1018.4 hPa | 0 mm | - | - | - |
| 1777470861 | 8.33° C | 90% | 1018.4 hPa | 0 mm | - | - | - |
| 1777470735 | 8.33° C | 90% | 1018.4 hPa | 0 mm | - | - | - |
| 1777470609 | 8.33° C | 90% | 1018.4 hPa | 0 mm | - | - | - |
| 1777469790 | 8.33° C | 91% | 1018.4 hPa | 0 mm | - | - | - |
| 1777467197 | 8.33° C | 91% | 1018.7 hPa | 0 mm | - | - | - |
* Rain latest hour (hover to see other rain measurements)
** Current wind speed in m/s (hover to see current wind gust speed)